Time;durP1;ratioP1;P1;durP2;ratioP2;P2;SDS_P1;SDS_P2;PMS_P1;PMS_P2;Temp;Humidity;BMP_temperature;BMP_pressure;BME280_temperature;BME280_humidity;BME280_pressure;Samples;Min_cycle;Max_cycle;Signal;HPM_P1;HPM_P2
2021/05/15 00:03:54;;;;;;;14.35;12.93;;;;;;;12.91;100.00;99482.08;257954;1099;114618;-73
2021/05/15 00:08:57;;;;;;;11.00;10.00;;;;;;;12.88;100.00;99492.12;257719;1104;114381;-69
2021/05/15 00:13:59;;;;;;;10.83;9.83;;;;;;;12.61;100.00;99492.08;257502;1099;114310;-71
2021/05/15 00:19:02;;;;;;;10.40;9.40;;;;;;;12.58;100.00;99493.13;259645;1085;114143;-71
2021/05/15 00:24:05;;;;;;;11.28;10.28;;;;;;;12.75;100.00;99502.76;255629;1099;114361;-70
2021/05/15 00:29:08;;;;;;;10.28;9.38;;;;;;;12.65;100.00;99504.28;255695;1099;114563;-70
2021/05/15 00:34:10;;;;;;;12.63;11.50;;;;;;;12.65;100.00;99506.95;255677;1104;114316;-65
2021/05/15 00:39:12;;;;;;;12.73;11.53;;;;;;;12.64;100.00;99507.91;255417;1104;114470;-65
2021/05/15 00:44:28;;;;;;;13.50;11.80;;;;;;;12.66;100.00;99506.84;255655;1104;114361;-71
2021/05/15 00:49:30;;;;;;;12.58;11.45;;;;;;;12.62;100.00;99502.66;255442;1099;114381;-64
2021/05/15 00:54:37;;;;;;;13.77;12.47;;;;;;;12.51;100.00;99505.16;255692;1100;114548;-71
2021/05/15 00:59:41;;;;;;;14.15;12.63;;;;;;;12.54;100.00;99505.83;255408;1104;114478;-71
2021/05/15 01:04:43;;;;;;;13.78;12.58;;;;;;;12.59;100.00;99509.06;255267;1099;114627;-71
2021/05/15 01:09:45;;;;;;;13.60;12.35;;;;;;;12.49;100.00;99502.56;255501;1098;114744;-72
2021/05/15 01:14:48;;;;;;;12.25;10.25;;;;;;;12.38;100.00;99505.05;255555;1104;114476;-73
2021/05/15 01:19:50;;;;;;;11.00;9.98;;;;;;;12.54;100.00;99508.50;255766;1104;114594;-71
2021/05/15 01:24:52;;;;;;;10.75;9.85;;;;;;;12.50;100.00;99506.95;255670;1104;114300;-65
2021/05/15 01:29:54;;;;;;;8.75;7.93;;;;;;;12.43;100.00;99510.96;255625;1100;114293;-65
2021/05/15 01:34:56;;;;;;;8.08;7.28;;;;;;;12.32;100.00;99516.13;255611;1099;114292;-71
2021/05/15 01:39:59;;;;;;;7.10;6.43;;;;;;;12.40;100.00;99519.19;255696;1100;114076;-70
2021/05/15 01:45:03;;;;;;;8.70;7.20;;;;;;;12.37;100.00;99519.36;255649;1104;114371;-66
2021/05/15 01:50:07;;;;;;;6.58;5.88;;;;;;;12.28;100.00;99516.30;255525;1104;114056;-74
2021/05/15 01:55:19;;;;;;;7.27;6.57;;;;;;;12.41;100.00;99510.19;255433;1099;114494;-70
2021/05/15 02:00:22;;;;;;;6.03;5.50;;;;;;;12.38;100.00;99511.24;255660;1100;114529;-70
2021/05/15 02:05:24;;;;;;;5.00;4.50;;;;;;;12.36;100.00;99506.95;255525;1104;114337;-70
2021/05/15 02:10:28;;;;;;;5.50;5.10;;;;;;;12.32;100.00;99506.28;255500;1099;114271;-70
2021/05/15 02:15:30;;;;;;;6.45;5.93;;;;;;;12.38;100.00;99505.05;255357;1104;114175;-64
2021/05/15 02:20:34;;;;;;;5.85;5.30;;;;;;;12.44;100.00;99505.52;255459;1104;114493;-65
2021/05/15 02:25:37;;;;;;;6.27;5.77;;;;;;;12.48;100.00;99511.53;255459;1100;114665;-70
2021/05/15 02:30:39;;;;;;;7.43;5.55;;;;;;;12.47;100.00;99508.96;256287;1099;114653;-65
2021/05/15 02:35:41;;;;;;;6.43;5.80;;;;;;;12.43;100.00;99508.29;255472;1104;114798;-70
2021/05/15 02:40:46;;;;;;;5.78;5.33;;;;;;;12.50;100.00;99514.97;255634;1099;114464;-69
2021/05/15 02:45:48;;;;;;;5.55;4.78;;;;;;;12.47;100.00;99515.19;255852;1100;114491;-65
2021/05/15 02:50:52;;;;;;;6.00;4.60;;;;;;;12.42;100.00;99517.27;255599;1104;114609;-72
2021/05/15 02:55:54;;;;;;;5.20;4.65;;;;;;;12.40;100.00;99529.88;255695;1099;114521;-65
2021/05/15 03:00:57;;;;;;;6.23;5.68;;;;;;;12.41;100.00;99529.78;256338;1100;114217;-70
2021/05/15 03:05:59;;;;;;;5.70;5.08;;;;;;;12.37;100.00;99530.05;255646;1099;114508;-65
2021/05/15 03:11:01;;;;;;;5.20;4.70;;;;;;;12.35;100.00;99537.30;255924;1104;114518;-72
2021/05/15 03:16:04;;;;;;;10.10;9.00;;;;;;;12.44;100.00;99536.74;256645;1104;114316;-65
2021/05/15 03:21:06;;;;;;;5.80;5.30;;;;;;;12.50;100.00;99546.20;257709;1104;114686;-72
2021/05/15 03:26:08;;;;;;;6.03;4.90;;;;;;;12.42;100.00;99542.19;256554;1100;114330;-71
2021/05/15 03:31:10;;;;;;;4.78;4.40;;;;;;;12.44;100.00;99547.44;255731;1104;114449;-65
2021/05/15 03:36:13;;;;;;;6.15;5.58;;;;;;;12.48;100.00;99545.44;255645;1104;114488;-66
2021/05/15 03:41:15;;;;;;;5.73;5.23;;;;;;;12.33;100.00;99541.90;255541;1104;114342;-65
2021/05/15 03:46:17;;;;;;;5.20;4.70;;;;;;;12.30;100.00;99539.40;255379;1104;114438;-71
2021/05/15 03:51:19;;;;;;;5.40;4.53;;;;;;;12.44;100.00;99547.44;255806;1099;114434;-67
2021/05/15 03:56:23;;;;;;;7.57;4.53;;;;;;;12.39;100.00;99555.73;255596;1104;114233;-71
2021/05/15 04:01:25;;;;;;;6.00;5.38;;;;;;;12.33;100.00;99565.95;255460;1100;114267;-70
2021/05/15 04:06:27;;;;;;;6.25;5.58;;;;;;;12.41;100.00;99563.64;255602;1100;114262;-70
2021/05/15 04:11:35;;;;;;;8.98;8.08;;;;;;;12.35;100.00;99559.55;255739;1097;114252;-69
2021/05/15 04:17:28;;;;;;;7.88;7.18;;;;;;;12.54;100.00;99564.64;256061;1099;114332;-72
2021/05/15 04:22:00;;;;;;;9.03;7.50;;;;;;;12.45;100.00;99567.87;255541;1104;114264;-71
2021/05/15 04:27:04;;;;;;;7.95;6.90;;;;;;;12.53;100.00;99560.25;255553;1104;114278;-67
2021/05/15 04:32:06;;;;;;;8.53;7.73;;;;;;;12.55;100.00;99569.00;255625;1104;114265;-71
2021/05/15 04:37:11;;;;;;;8.37;6.97;;;;;;;12.37;100.00;99567.47;255757;1104;114489;-71
2021/05/15 04:42:13;;;;;;;13.53;12.13;;;;;;;12.49;100.00;99571.22;255442;1099;114342;-66
2021/05/15 04:47:15;;;;;;;6.88;6.28;;;;;;;12.19;100.00;99585.47;255607;1104;114599;-66
2021/05/15 04:52:18;;;;;;;7.60;6.80;;;;;;;12.02;100.00;99589.14;255500;1104;114438;-67
2021/05/15 04:57:20;;;;;;;8.40;7.60;;;;;;;12.00;100.00;99597.25;255511;1097;114229;-66
2021/05/15 05:02:22;;;;;;;8.83;7.75;;;;;;;11.99;100.00;99602.66;255419;1099;114435;-64
2021/05/15 05:07:24;;;;;;;6.60;6.00;;;;;;;11.83;100.00;99608.89;255784;1104;114546;-73
2021/05/15 05:12:27;;;;;;;9.63;4.20;;;;;;;11.88;100.00;99621.95;255743;1104;114376;-68
2021/05/15 05:17:29;;;;;;;3.95;3.65;;;;;;;11.82;100.00;99623.19;255929;1104;114467;-68
2021/05/15 05:22:31;;;;;;;4.33;3.90;;;;;;;11.93;100.00;99618.08;255416;1104;114100;-68
2021/05/15 05:27:33;;;;;;;4.60;3.85;;;;;;;11.95;100.00;99621.52;255635;1100;114436;-66
2021/05/15 05:32:35;;;;;;;5.13;4.63;;;;;;;11.91;100.00;99625.30;255472;1105;116705;-70
2021/05/15 05:37:38;;;;;;;4.18;3.88;;;;;;;12.10;100.00;99622.46;256391;1099;114169;-66
2021/05/15 05:42:41;;;;;;;3.93;3.20;;;;;;;12.03;100.00;99633.61;255597;1100;114245;-71
2021/05/15 05:47:43;;;;;;;2.78;2.45;;;;;;;12.09;100.00;99635.91;255405;1099;114548;-65
2021/05/15 05:52:46;;;;;;;5.65;4.93;;;;;;;12.14;100.00;99639.17;255404;1104;114458;-65
2021/05/15 05:57:48;;;;;;;4.80;4.30;;;;;;;12.10;100.00;99648.33;255365;1104;114416;-67
2021/05/15 06:02:50;;;;;;;3.90;3.50;;;;;;;12.21;100.00;99647.70;255552;1104;114343;-73
2021/05/15 06:07:52;;;;;;;4.00;3.50;;;;;;;12.05;100.00;99653.08;255554;1098;114293;-71
2021/05/15 06:12:54;;;;;;;3.45;3.15;;;;;;;11.88;100.00;99660.22;255716;1100;114269;-68
2021/05/15 06:17:57;;;;;;;6.15;4.48;;;;;;;12.02;100.00;99666.61;256916;1100;114673;-73
2021/05/15 06:22:59;;;;;;;3.90;3.50;;;;;;;12.09;100.00;99659.95;255932;1104;114633;-70
2021/05/15 06:28:02;;;;;;;5.80;3.05;;;;;;;12.17;100.00;99668.39;255557;1104;114601;-68
2021/05/15 06:33:05;;;;;;;3.25;3.00;;;;;;;12.24;100.00;99677.77;255450;1098;114298;-67
2021/05/15 06:38:08;;;;;;;3.70;3.40;;;;;;;12.30;100.00;99683.70;255412;1099;114407;-67
2021/05/15 06:43:10;;;;;;;3.88;3.58;;;;;;;12.26;100.00;99681.19;255519;1104;114172;-66
2021/05/15 06:48:12;;;;;;;5.28;4.78;;;;;;;12.27;100.00;99690.09;255414;1099;114752;-70
2021/05/15 06:53:14;;;;;;;3.90;3.60;;;;;;;12.45;100.00;99688.15;255817;1104;114322;-66
2021/05/15 06:58:19;;;;;;;2.68;2.45;;;;;;;12.47;100.00;99690.72;255690;1104;114164;-71
2021/05/15 07:03:21;;;;;;;3.63;3.43;;;;;;;12.54;100.00;99700.10;255605;1104;114872;-65
2021/05/15 07:08:23;;;;;;;3.58;3.13;;;;;;;12.75;100.00;99695.30;255713;1104;114462;-65
2021/05/15 07:13:25;;;;;;;4.15;3.68;;;;;;;12.68;100.00;99692.13;255569;1104;114295;-65
2021/05/15 07:18:27;;;;;;;3.90;3.60;;;;;;;12.64;100.00;99697.73;255509;1104;114494;-67
2021/05/15 07:23:30;;;;;;;3.80;3.17;;;;;;;12.72;100.00;99695.47;255401;1100;114478;-71
2021/05/15 07:28:32;;;;;;;4.78;4.35;;;;;;;13.05;100.00;99702.39;255279;1099;114297;-74
2021/05/15 07:33:34;;;;;;;2.95;2.60;;;;;;;12.81;100.00;99700.27;255744;1104;114739;-67
2021/05/15 07:38:37;;;;;;;3.00;2.80;;;;;;;13.12;100.00;99709.08;255878;1104;114276;-70
2021/05/15 07:43:39;;;;;;;2.95;2.65;;;;;;;13.22;100.00;99710.25;255586;1099;114436;-71
2021/05/15 07:48:43;;;;;;;3.80;3.50;;;;;;;13.23;100.00;99706.63;255496;1098;114355;-71
2021/05/15 07:53:51;;;;;;;4.10;2.88;;;;;;;13.28;100.00;99708.14;255607;1104;114344;-72
2021/05/15 07:58:53;;;;;;;2.70;2.50;;;;;;;13.42;100.00;99710.84;255550;1099;114515;-69
2021/05/15 08:03:55;;;;;;;2.30;2.13;;;;;;;13.49;100.00;99714.02;255524;1104;114640;-71
2021/05/15 08:08:57;;;;;;;2.93;2.73;;;;;;;13.62;100.00;99714.08;255591;1098;114518;-73
2021/05/15 08:14:00;;;;;;;3.53;2.33;;;;;;;13.69;100.00;99720.77;255819;1099;114989;-67
2021/05/15 08:19:02;;;;;;;2.73;2.20;;;;;;;13.79;100.00;99727.27;255756;1100;114247;-71
2021/05/15 08:24:05;;;;;;;3.18;2.30;;;;;;;13.79;100.00;99724.59;255288;1100;114288;-73
2021/05/15 08:29:11;;;;;;;2.43;2.23;;;;;;;14.27;100.00;99732.19;255718;1100;114391;-67
2021/05/15 08:34:13;;;;;;;4.23;1.80;;;;;;;14.19;100.00;99729.18;255532;1104;114442;-71
2021/05/15 08:39:16;;;;;;;5.33;3.65;;;;;;;14.58;99.81;99738.20;255497;1099;114500;-68
2021/05/15 08:44:23;;;;;;;3.78;2.00;;;;;;;14.63;97.71;99729.84;255287;1104;114182;-70
2021/05/15 08:49:27;;;;;;;1.80;1.70;;;;;;;14.78;91.79;99728.84;255604;1104;114096;-73
2021/05/15 08:54:30;;;;;;;2.18;1.98;;;;;;;14.95;92.92;99729.49;255357;1104;114743;-68
2021/05/15 08:59:33;;;;;;;2.40;1.68;;;;;;;15.10;89.08;99733.80;255232;1100;114112;-73
2021/05/15 09:04:35;;;;;;;3.93;2.73;;;;;;;15.06;88.37;99736.80;256436;1099;114066;-68
2021/05/15 09:09:37;;;;;;;2.88;2.30;;;;;;;15.14;89.77;99740.70;255115;1104;114687;-71
2021/05/15 09:14:39;;;;;;;3.37;2.10;;;;;;;15.12;88.69;99731.88;255258;1104;114399;-70
2021/05/15 09:19:52;;;;;;;3.28;2.95;;;;;;;15.31;84.71;99727.90;255314;1100;114438;-69
2021/05/15 09:24:54;;;;;;;2.68;1.88;;;;;;;14.98;85.63;99734.66;255689;1104;116827;-72
2021/05/15 09:29:57;;;;;;;4.93;2.67;;;;;;;15.43;83.89;99736.92;256300;1098;114109;-70
2021/05/15 09:35:00;;;;;;;9.43;4.13;;;;;;;15.41;84.38;99736.16;257171;1099;114405;-71
2021/05/15 09:40:18;;;;;;;3.80;3.00;;;;;;;15.26;83.92;99746.16;256128;1099;113998;-74
2021/05/15 09:45:30;;;;;;;4.13;3.08;;;;;;;15.53;86.18;99723.69;256253;1100;114131;-74
2021/05/15 09:50:35;;;;;;;3.88;2.38;;;;;;;16.07;84.33;99722.52;255491;1104;113993;-68
2021/05/15 09:55:40;;;;;;;6.28;2.70;;;;;;;16.22;77.53;99723.20;256238;1100;114395;-72
2021/05/15 10:00:45;;;;;;;2.18;1.80;;;;;;;16.24;74.83;99723.95;255677;1100;114161;-75
2021/05/15 10:06:17;;;;;;;5.80;2.35;;;;;;;16.03;73.96;99729.10;255957;1099;114042;-71
2021/05/15 10:11:21;;;;;;;2.68;2.13;;;;;;;16.29;73.68;99737.91;255290;1104;114231;-71
2021/05/15 10:16:23;;;;;;;3.83;3.20;;;;;;;16.48;73.02;99728.48;255583;1104;114299;-69
2021/05/15 10:21:25;;;;;;;6.80;2.33;;;;;;;16.41;72.76;99745.08;255462;1100;114109;-68
2021/05/15 10:26:28;;;;;;;3.85;2.60;;;;;;;16.43;67.65;99736.02;255165;1104;114222;-72
2021/05/15 10:31:44;;;;;;;4.30;3.80;;;;;;;16.80;68.18;99741.30;255870;1099;114288;-66
2021/05/15 10:36:50;;;;;;;5.43;4.83;;;;;;;16.92;68.76;99751.16;255478;1099;114604;-71
2021/05/15 10:41:52;;;;;;;4.70;3.13;;;;;;;17.01;67.43;99734.30;255714;1098;114524;-70
2021/05/15 10:46:56;;;;;;;3.83;2.65;;;;;;;16.59;66.41;99736.58;255537;1099;114384;-68
2021/05/15 10:52:09;;;;;;;8.58;6.33;;;;;;;17.27;64.23;99736.78;255998;1104;114097;-71
2021/05/15 10:57:20;;;;;;;3.97;2.13;;;;;;;17.11;62.73;99738.98;255503;1098;114177;-75
2021/05/15 11:02:30;;;;;;;2.63;1.88;;;;;;;17.02;63.12;99746.79;255494;1104;114161;-71
2021/05/15 11:07:39;;;;;;;2.57;2.37;;;;;;;17.22;61.39;99727.37;255487;1100;117857;-69
2021/05/15 11:12:53;;;;;;;4.28;2.05;;;;;;;17.29;60.43;99740.22;255312;1104;114150;-69
2021/05/15 11:18:04;;;;;;;3.13;2.25;;;;;;;17.66;54.89;99737.30;255540;1099;114608;-67
2021/05/15 11:23:23;;;;;;;2.23;2.03;;;;;;;18.24;54.77;99743.48;255652;1099;115995;-69
2021/05/15 11:28:27;;;;;;;4.93;2.87;;;;;;;18.27;54.49;99733.30;255683;1104;113934;-71
2021/05/15 11:33:29;;;;;;;;;;;;;;;18.45;52.52;99730.06;255516;1104;114042;-74
2021/05/15 11:38:33;;;;;;;4.33;2.30;;;;;;;18.56;51.72;99731.86;255345;1104;103184;-72
2021/05/15 11:43:37;;;;;;;4.35;2.30;;;;;;;18.24;52.89;99730.00;255725;1104;114464;-70
2021/05/15 11:48:43;;;;;;;3.45;2.20;;;;;;;17.72;53.11;99733.27;256143;1098;113986;-67
2021/05/15 11:53:52;;;;;;;4.93;1.70;;;;;;;18.06;52.95;99733.25;255631;1099;114420;-68
2021/05/15 11:59:01;;;;;;;1.40;1.30;;;;;;;18.60;50.51;99736.00;255964;1099;118114;-72
2021/05/15 12:04:16;;;;;;;2.18;1.68;;;;;;;19.00;47.69;99729.09;255829;1104;114304;-74
2021/05/15 12:09:21;;;;;;;4.95;2.65;;;;;;;18.82;48.61;99739.59;255591;1100;114110;-69
2021/05/15 12:14:24;;;;;;;3.28;2.00;;;;;;;18.77;47.99;99723.78;255598;1104;114051;-68
2021/05/15 12:19:27;;;;;;;1.95;1.58;;;;;;;19.12;46.29;99714.52;255510;1104;114013;-73
2021/05/15 12:24:48;;;;;;;2.15;1.93;;;;;;;18.90;46.77;99713.64;255677;1104;115563;-70
2021/05/15 12:30:08;;;;;;;2.75;1.70;;;;;;;19.17;46.56;99709.56;255338;1099;114080;-71
2021/05/15 12:35:11;;;;;;;5.15;1.73;;;;;;;19.04;46.86;99703.52;255567;1104;114331;-67
2021/05/15 12:40:15;;;;;;;2.90;1.75;;;;;;;18.77;46.24;99697.66;255812;1099;114169;-67
2021/05/15 12:45:17;;;;;;;2.43;2.23;;;;;;;19.47;46.77;99693.52;256662;1104;114290;-69
2021/05/15 12:50:20;;;;;;;3.85;1.93;;;;;;;19.29;47.36;99685.19;255712;1104;114177;-68
2021/05/15 12:55:23;;;;;;;3.93;2.05;;;;;;;19.15;46.35;99684.55;256330;1104;114001;-68
2021/05/15 13:00:26;;;;;;;6.23;4.18;;;;;;;19.36;46.42;99676.39;255734;1099;114063;-71
2021/05/15 13:05:35;;;;;;;1.90;1.80;;;;;;;19.56;44.88;99666.52;255792;1104;114292;-69
2021/05/15 13:10:38;;;;;;;2.33;1.40;;;;;;;19.53;46.41;99666.77;256001;1098;114057;-70
2021/05/15 13:15:42;;;;;;;4.40;1.80;;;;;;;19.52;45.47;99651.55;255698;1104;198243;-68
2021/05/15 13:20:46;;;;;;;3.50;1.48;;;;;;;19.21;46.36;99659.70;255795;1099;114167;-66
2021/05/15 13:25:48;;;;;;;2.63;1.77;;;;;;;19.02;47.23;99646.10;255877;1104;114370;-68
2021/05/15 13:30:51;;;;;;;4.45;1.73;;;;;;;19.08;47.11;99642.86;255801;1104;114233;-71
2021/05/15 13:35:53;;;;;;;1.88;1.70;;;;;;;19.48;44.89;99651.98;255746;1104;114175;-70
2021/05/15 13:40:55;;;;;;;1.85;1.50;;;;;;;19.87;45.04;99639.45;255335;1104;114154;-68
2021/05/15 13:45:57;;;;;;;3.13;1.80;;;;;;;19.72;45.56;99651.63;255547;1104;116159;-72
2021/05/15 13:51:05;;;;;;;1.73;1.63;;;;;;;19.05;46.44;99643.98;255838;1104;114385;-71
2021/05/15 13:56:08;;;;;;;1.50;1.40;;;;;;;19.55;45.47;99647.74;255624;1099;113949;-72
2021/05/15 14:01:11;;;;;;;2.48;1.68;;;;;;;19.85;45.12;99633.32;255816;1099;114177;-70
2021/05/15 14:06:13;;;;;;;2.23;1.68;;;;;;;20.10;43.18;99632.92;255978;1099;114390;-72
2021/05/15 14:11:16;;;;;;;1.53;1.33;;;;;;;20.17;39.98;99634.06;255793;1100;114151;-72
2021/05/15 14:16:18;;;;;;;1.23;1.13;;;;;;;20.13;41.24;99630.78;255828;1104;114247;-72
2021/05/15 14:21:21;;;;;;;3.05;1.60;;;;;;;20.47;40.24;99638.46;255685;1104;114506;-70
2021/05/15 14:26:23;;;;;;;4.48;2.45;;;;;;;19.64;43.36;99643.34;255876;1104;114074;-69
2021/05/15 14:31:26;;;;;;;3.33;1.30;;;;;;;20.59;41.34;99622.92;255855;1098;114584;-70
2021/05/15 14:36:28;;;;;;;1.70;1.58;;;;;;;20.41;38.60;99628.21;255572;1104;114242;-72
2021/05/15 14:41:32;;;;;;;2.87;1.43;;;;;;;20.52;39.31;99613.67;256207;1099;114141;-70
2021/05/15 14:46:35;;;;;;;1.38;1.25;;;;;;;20.23;38.31;99626.21;255505;1100;114220;-69
2021/05/15 14:51:37;;;;;;;1.90;1.40;;;;;;;20.16;39.11;99619.66;255935;1104;114573;-71
2021/05/15 14:56:40;;;;;;;2.00;1.10;;;;;;;20.28;39.25;99622.24;255665;1100;114532;-74
2021/05/15 15:01:42;;;;;;;1.93;1.60;;;;;;;20.22;38.94;99613.70;255576;1099;114204;-69
2021/05/15 15:06:44;;;;;;;1.78;1.30;;;;;;;19.94;38.94;99614.55;255889;1104;113990;-71
2021/05/15 15:11:46;;;;;;;2.48;1.33;;;;;;;20.12;37.34;99618.25;255624;1099;114230;-70
2021/05/15 15:16:49;;;;;;;1.60;1.40;;;;;;;19.95;39.61;99614.40;255753;1104;206448;-74
2021/05/15 15:21:51;;;;;;;1.60;1.50;;;;;;;19.75;38.79;99616.18;255855;1104;114140;-70
2021/05/15 15:26:53;;;;;;;4.18;3.53;;;;;;;19.98;38.54;99610.55;255318;1099;114105;-70
2021/05/15 15:31:56;;;;;;;1.63;1.53;;;;;;;20.19;37.52;99605.02;255500;1100;114274;-69
2021/05/15 15:36:59;;;;;;;2.75;2.40;;;;;;;20.59;36.55;99597.69;256060;1099;114092;-68
2021/05/15 15:42:01;;;;;;;3.83;3.28;;;;;;;19.92;37.68;99592.19;258280;1104;114212;-69
2021/05/15 15:47:04;;;;;;;2.08;1.88;;;;;;;20.63;37.59;99593.70;257374;1100;114006;-74
2021/05/15 15:52:07;;;;;;;1.88;1.35;;;;;;;21.38;37.08;99596.44;256518;1104;114073;-70
2021/05/15 15:57:09;;;;;;;1.80;1.48;;;;;;;21.27;35.36;99591.23;256279;1104;114350;-72
2021/05/15 16:02:11;;;;;;;1.77;1.57;;;;;;;21.10;37.37;99591.00;255392;1104;114215;-75
2021/05/15 16:07:14;;;;;;;2.65;2.20;;;;;;;20.43;38.41;99591.04;255988;1098;114062;-70
2021/05/15 16:12:18;;;;;;;2.05;1.43;;;;;;;19.63;39.23;99592.97;255332;1100;114041;-71
2021/05/15 16:17:21;;;;;;;1.88;1.60;;;;;;;19.29;40.66;99579.81;256004;1104;114161;-69
2021/05/15 16:22:23;;;;;;;2.10;1.30;;;;;;;19.08;40.42;99580.73;255517;1099;114181;-69
2021/05/15 16:27:25;;;;;;;3.90;1.73;;;;;;;19.10;42.11;99576.06;255470;1104;114501;-71
2021/05/15 16:32:28;;;;;;;3.43;2.50;;;;;;;19.11;41.15;99569.64;255924;1104;114240;-75
2021/05/15 16:37:31;;;;;;;2.33;1.50;;;;;;;19.32;40.98;99571.41;255604;1098;114109;-73
2021/05/15 16:42:33;;;;;;;2.98;1.68;;;;;;;19.38;40.37;99570.88;255659;1100;114541;-70
2021/05/15 16:47:36;;;;;;;3.00;1.68;;;;;;;19.36;40.80;99562.05;255664;1099;114534;-70
2021/05/15 16:52:38;;;;;;;1.80;1.40;;;;;;;19.19;40.01;99564.41;255686;1104;114112;-73
2021/05/15 16:57:40;;;;;;;2.70;1.13;;;;;;;19.03;41.46;99566.80;256635;1099;114805;-72
2021/05/15 17:02:42;;;;;;;1.98;1.23;;;;;;;19.02;41.84;99567.78;255702;1104;114595;-68
2021/05/15 17:07:45;;;;;;;1.30;1.20;;;;;;;18.98;41.61;99559.09;255866;1098;114512;-71
2021/05/15 17:12:47;;;;;;;1.70;1.15;;;;;;;18.95;41.16;99549.42;255988;1099;114389;-71
2021/05/15 17:17:49;;;;;;;2.20;1.73;;;;;;;18.86;41.06;99550.20;255834;1100;114438;-72
2021/05/15 17:22:53;;;;;;;1.55;1.43;;;;;;;18.81;43.34;99547.06;255993;1104;114152;-72
2021/05/15 17:27:57;;;;;;;1.13;1.10;;;;;;;18.60;44.16;99549.78;255840;1099;114241;-70
2021/05/15 17:32:59;;;;;;;2.18;1.30;;;;;;;18.45;43.81;99543.88;255875;1104;114155;-74
2021/05/15 17:38:02;;;;;;;2.45;1.30;;;;;;;18.33;46.88;99553.89;255726;1104;114370;-72
2021/05/15 17:43:04;;;;;;;1.33;1.10;;;;;;;18.23;45.84;99558.34;255614;1104;114287;-70
2021/05/15 17:48:07;;;;;;;2.80;1.50;;;;;;;18.12;47.37;99546.65;255602;1104;114229;-72
2021/05/15 17:53:10;;;;;;;1.60;1.15;;;;;;;18.07;48.07;99545.32;255611;1104;114289;-71
2021/05/15 17:58:13;;;;;;;2.28;1.60;;;;;;;18.02;47.38;99550.26;255768;1100;114329;-73
2021/05/15 18:03:16;;;;;;;3.30;1.25;;;;;;;17.96;46.64;99557.89;255889;1100;114196;-71
2021/05/15 18:08:18;;;;;;;2.80;1.60;;;;;;;17.82;47.61;99566.25;255584;1098;114294;-71
2021/05/15 18:13:23;;;;;;;1.20;1.10;;;;;;;17.67;48.33;99568.36;255743;1100;114014;-71
2021/05/15 18:18:26;;;;;;;2.95;1.38;;;;;;;17.51;47.14;99558.84;255441;1100;114062;-71
2021/05/15 18:23:29;;;;;;;2.53;1.53;;;;;;;17.40;49.99;99566.13;255319;1098;114533;-71
2021/05/15 18:28:33;;;;;;;1.70;1.25;;;;;;;17.33;50.80;99563.94;255513;1104;115456;-74
2021/05/15 18:33:35;;;;;;;2.98;1.58;;;;;;;17.19;54.49;99569.59;255637;1104;114572;-70
2021/05/15 18:38:38;;;;;;;3.83;2.10;;;;;;;17.01;53.55;99566.54;255783;1097;114192;-70
2021/05/15 18:43:40;;;;;;;5.23;2.40;;;;;;;16.90;53.54;99575.44;255566;1097;114003;-69
2021/05/15 18:48:42;;;;;;;3.65;2.00;;;;;;;16.77;55.55;99570.16;255482;1100;115004;-70
2021/05/15 18:53:45;;;;;;;5.03;2.38;;;;;;;16.64;59.09;99570.27;255621;1104;114187;-72
2021/05/15 18:58:50;;;;;;;6.15;2.93;;;;;;;16.61;58.69;99573.21;255674;1100;114057;-72
2021/05/15 19:03:53;;;;;;;5.93;2.90;;;;;;;16.54;59.51;99574.66;258288;1100;115264;-66
2021/05/15 19:08:55;;;;;;;4.53;2.97;;;;;;;16.41;61.34;99570.25;256591;1104;114093;-71
2021/05/15 19:13:57;;;;;;;4.63;3.63;;;;;;;16.39;59.92;99571.31;255752;1098;114080;-71
2021/05/15 19:19:00;;;;;;;4.20;3.80;;;;;;;16.30;60.98;99567.52;255578;1100;114146;-69
2021/05/15 19:24:02;;;;;;;6.65;3.98;;;;;;;16.22;61.27;99565.43;255624;1104;114090;-68
2021/05/15 19:29:05;;;;;;;7.43;4.30;;;;;;;16.18;61.27;99568.47;255966;1100;114314;-73
2021/05/15 19:34:07;;;;;;;9.65;3.95;;;;;;;16.19;62.47;99567.50;255236;1104;114052;-73
2021/05/15 19:39:09;;;;;;;4.50;3.65;;;;;;;16.02;61.55;99563.41;255593;1100;114219;-73
2021/05/15 19:44:11;;;;;;;6.70;4.13;;;;;;;16.06;60.07;99560.38;255798;1100;114333;-70
2021/05/15 19:49:13;;;;;;;4.20;3.63;;;;;;;15.96;61.27;99564.73;255705;1104;114147;-70
2021/05/15 19:54:49;;;;;;;3.50;3.20;;;;;;;15.79;63.51;99563.28;255743;1099;114320;-69
2021/05/15 19:59:44;;;;;;;6.83;4.20;;;;;;;15.81;63.14;99571.22;255774;1104;114226;-72
2021/05/15 20:04:47;;;;;;;8.05;4.15;;;;;;;15.64;64.97;99562.61;255660;1100;114041;-70
2021/05/15 20:09:49;;;;;;;8.98;4.25;;;;;;;15.55;64.91;99571.34;255589;1104;114026;-74
2021/05/15 20:14:52;;;;;;;5.07;4.00;;;;;;;15.53;64.69;99573.27;255640;1104;114229;-72
2021/05/15 20:19:54;;;;;;;5.80;4.73;;;;;;;15.42;65.56;99577.63;255398;1104;114627;-68
2021/05/15 20:24:56;;;;;;;8.93;5.55;;;;;;;15.34;65.92;99576.45;255298;1099;114507;-68
2021/05/15 20:29:59;;;;;;;6.40;5.78;;;;;;;15.15;67.60;99567.06;255709;1104;114178;-69
2021/05/15 20:35:02;;;;;;;8.73;5.70;;;;;;;15.04;69.13;99567.83;255753;1104;114034;-70
2021/05/15 20:40:05;;;;;;;8.00;5.57;;;;;;;14.99;69.10;99570.00;255631;1104;114252;-71
2021/05/15 20:45:09;;;;;;;7.63;5.70;;;;;;;15.01;69.73;99573.44;255839;1104;114436;-73
2021/05/15 20:50:12;;;;;;;6.70;5.90;;;;;;;14.92;69.89;99566.03;256013;1100;114582;-71
2021/05/15 20:55:15;;;;;;;7.53;6.13;;;;;;;14.88;69.46;99561.84;255917;1099;114946;-71
2021/05/15 21:00:21;;;;;;;8.83;6.63;;;;;;;14.80;70.66;99560.55;255704;1104;114455;-71
2021/05/15 21:05:24;;;;;;;6.50;5.73;;;;;;;14.78;70.16;99557.15;255710;1104;114310;-72
2021/05/15 21:10:28;;;;;;;9.63;6.30;;;;;;;14.73;70.27;99563.80;255720;1099;114095;-70
2021/05/15 21:15:30;;;;;;;10.00;7.30;;;;;;;14.49;69.96;99568.06;255897;1100;114354;-69
2021/05/15 21:20:33;;;;;;;7.43;5.87;;;;;;;14.56;70.40;99563.11;255851;1104;114226;-69
2021/05/15 21:25:39;;;;;;;9.68;5.90;;;;;;;14.44;70.20;99554.13;255626;1100;114263;-69
2021/05/15 21:30:42;;;;;;;5.87;5.37;;;;;;;14.59;67.45;99546.82;255859;1104;114292;-72
2021/05/15 21:35:45;;;;;;;5.77;5.17;;;;;;;14.78;66.37;99541.05;255956;1104;114100;-72
2021/05/15 21:40:50;;;;;;;7.38;5.38;;;;;;;14.86;64.47;99536.96;256665;1104;114251;-70
2021/05/15 21:45:52;;;;;;;5.38;4.90;;;;;;;14.81;65.20;99534.61;256265;1100;114080;-70
2021/05/15 21:50:55;;;;;;;8.25;5.03;;;;;;;14.72;65.95;99530.77;255633;1098;114534;-71
2021/05/15 21:55:57;;;;;;;7.55;6.10;;;;;;;14.71;65.66;99528.16;255523;1097;114377;-68
2021/05/15 22:00:59;;;;;;;6.55;4.93;;;;;;;14.69;66.17;99522.08;255660;1104;114387;-67
2021/05/15 22:06:02;;;;;;;6.25;5.35;;;;;;;14.68;65.89;99528.40;255656;1099;114208;-72
2021/05/15 22:11:07;;;;;;;6.98;5.60;;;;;;;14.62;65.31;99526.97;255562;1104;114174;-68
2021/05/15 22:16:10;;;;;;;6.38;5.78;;;;;;;14.57;65.10;99521.08;256008;1104;114134;-70
2021/05/15 22:21:19;;;;;;;7.13;5.55;;;;;;;14.56;66.02;99527.41;256013;1100;115058;-73
2021/05/15 22:26:23;;;;;;;8.03;5.80;;;;;;;14.56;66.10;99525.57;255714;1104;114213;-70
2021/05/15 22:31:27;;;;;;;10.33;7.97;;;;;;;14.35;68.22;99560.13;256273;1099;114128;-68
2021/05/15 22:36:30;;;;;;;9.60;7.50;;;;;;;13.85;69.25;99558.10;256265;1100;114488;-68
2021/05/15 22:41:32;;;;;;;7.55;6.75;;;;;;;13.81;70.69;99561.95;255711;1099;114130;-68
2021/05/15 22:46:35;;;;;;;8.40;6.65;;;;;;;13.42;75.38;99550.23;255850;1099;114133;-70
2021/05/15 22:51:37;;;;;;;7.18;4.98;;;;;;;13.38;81.14;99538.86;255958;1104;114139;-70
2021/05/15 22:56:39;;;;;;;8.10;6.08;;;;;;;13.76;85.12;99531.92;255563;1104;114356;-71
2021/05/15 23:01:48;;;;;;;5.40;4.90;;;;;;;13.46;91.77;99524.95;255654;1100;114111;-71
2021/05/15 23:06:50;;;;;;;3.85;3.45;;;;;;;13.74;89.66;99516.92;255689;1104;114411;-68
2021/05/15 23:11:53;;;;;;;4.48;4.00;;;;;;;13.99;95.20;99505.40;255818;1100;114030;-72